Time;durP1;ratioP1;P1;durP2;ratioP2;P2;SDS_P1;SDS_P2;PMS_P1;PMS_P2;Temp;Humidity;BMP_temperature;BMP_pressure;BME280_temperature;BME280_humidity;BME280_pressure;Samples;Min_cycle;Max_cycle;Signal;HPM_P1;HPM_P2
2022/10/19 00:00:31;;;;;;;25.63;10.57;;;;;;;15.85;72.75;100096.69;5194265;28;20121;-71
2022/10/19 00:03:21;;;;;;;20.98;11.20;;;;;;;15.94;73.40;100089.59;5197969;28;20048;-71
2022/10/19 00:06:26;;;;;;;18.88;9.50;;;;;;;15.97;73.54;100094.66;5201596;28;20049;-71
2022/10/19 00:09:17;;;;;;;27.67;10.00;;;;;;;15.98;73.42;100094.47;5205247;28;20506;-73
2022/10/19 00:12:08;;;;;;;18.92;9.90;;;;;;;15.98;73.17;100091.81;5200893;28;20519;-71
2022/10/19 00:14:58;;;;;;;20.02;9.68;;;;;;;16.02;73.57;100094.19;5200518;28;20060;-71
2022/10/19 00:17:48;;;;;;;23.75;9.98;;;;;;;16.02;73.23;100081.66;5201014;28;20582;-71
2022/10/19 00:20:38;;;;;;;19.80;9.82;;;;;;;16.11;73.52;100095.94;5206210;28;20049;-71
2022/10/19 00:23:28;;;;;;;17.58;9.45;;;;;;;16.06;72.64;100088.41;5201879;28;20048;-71
2022/10/19 00:26:18;;;;;;;20.25;9.68;;;;;;;16.12;72.84;100084.25;5201354;28;20154;-71
2022/10/19 00:29:11;;;;;;;18.65;9.65;;;;;;;16.13;72.95;100093.97;5189320;28;20119;-70
2022/10/19 00:32:01;;;;;;;13.48;9.35;;;;;;;16.16;72.54;100096.34;5199642;28;20064;-71
2022/10/19 00:34:51;;;;;;;23.67;10.35;;;;;;;16.24;73.17;100096.41;5185033;28;20112;-71
2022/10/19 00:37:41;;;;;;;21.40;10.02;;;;;;;16.25;72.91;100098.09;5210086;28;20238;-71
2022/10/19 00:40:38;;;;;;;17.63;9.77;;;;;;;16.28;73.23;100087.06;5204997;28;20050;-71
2022/10/19 00:43:29;;;;;;;22.98;11.15;;;;;;;16.21;73.74;100077.97;5200213;28;20056;-72
2022/10/19 00:46:20;;;;;;;28.10;11.43;;;;;;;16.36;73.38;100099.72;5204464;28;20053;-72
2022/10/19 00:49:20;;;;;;;34.88;10.98;;;;;;;16.38;73.40;100093.19;5205916;28;20431;-71
2022/10/19 00:52:15;;;;;;;30.75;9.57;;;;;;;16.29;72.82;100083.44;5201825;28;20148;-71
2022/10/19 00:55:06;;;;;;;30.70;11.65;;;;;;;16.35;73.00;100098.00;5201117;28;20072;-71
2022/10/19 00:57:57;;;;;;;28.02;10.25;;;;;;;16.39;72.86;100089.53;5203546;28;20512;-72
2022/10/19 01:00:47;;;;;;;31.98;10.27;;;;;;;16.27;73.04;100087.25;5204156;28;20143;-71
2022/10/19 01:03:38;;;;;;;27.33;10.13;;;;;;;16.21;73.40;100086.84;5200622;28;20067;-71
2022/10/19 01:06:28;;;;;;;30.05;10.98;;;;;;;16.17;73.21;100093.50;5199147;28;20057;-71
2022/10/19 01:09:18;;;;;;;27.85;10.52;;;;;;;16.08;73.14;100080.19;5192255;28;20135;-72
2022/10/19 01:12:53;;;;;;;26.67;9.35;;;;;;;16.03;72.52;100088.69;5204431;28;20057;-72
2022/10/19 01:15:53;;;;;;;21.52;9.57;;;;;;;15.97;73.09;100087.47;5205928;28;20063;-71
2022/10/19 01:19:04;;;;;;;27.92;10.27;;;;;;;16.04;72.10;100086.84;5202086;28;20425;-71
2022/10/19 01:22:34;;;;;;;21.38;9.77;;;;;;;16.14;72.88;100084.94;5200119;28;20436;-71
2022/10/19 01:25:54;;;;;;;18.02;10.40;;;;;;;16.21;73.20;100076.16;5199591;28;20061;-71
2022/10/19 01:28:59;;;;;;;23.13;11.38;;;;;;;16.28;73.31;100079.03;5200356;28;20057;-72
2022/10/19 01:32:01;;;;;;;24.25;10.70;;;;;;;16.30;73.78;100071.72;5208142;28;20049;-72
2022/10/19 01:35:09;;;;;;;22.30;10.63;;;;;;;16.29;73.37;100071.84;5202125;28;20191;-71
2022/10/19 01:38:07;;;;;;;25.20;10.98;;;;;;;16.23;73.21;100051.09;5197825;28;20724;-71
2022/10/19 01:41:15;;;;;;;24.20;11.73;;;;;;;16.37;73.51;100069.25;5197722;28;20053;-71
2022/10/19 01:44:27;;;;;;;19.50;10.73;;;;;;;16.43;73.36;100065.97;5194505;28;20088;-71
2022/10/19 01:48:02;;;;;;;20.77;11.18;;;;;;;16.33;73.14;100067.91;5205967;28;20045;-72
2022/10/19 01:51:06;;;;;;;19.33;11.18;;;;;;;16.46;73.55;100054.94;5197875;28;20558;-71
2022/10/19 01:53:59;;;;;;;;;;;;;;;16.48;73.11;100054.78;5201045;28;20049;-71
2022/10/19 01:56:51;;;;;;;19.83;11.00;;;;;;;16.49;73.19;100043.06;5204953;28;19925;-71
2022/10/19 01:59:42;;;;;;;21.60;11.88;;;;;;;16.61;73.38;100048.00;5185450;28;20045;-71
2022/10/19 02:02:37;;;;;;;23.58;11.88;;;;;;;16.60;73.48;100042.84;5199655;28;20045;-70
2022/10/19 02:05:31;;;;;;;23.27;11.50;;;;;;;16.60;72.89;100042.84;5204647;28;20096;-71
2022/10/19 02:08:29;;;;;;;22.35;12.38;;;;;;;16.61;72.93;100039.97;5208354;28;20072;-71
2022/10/19 02:11:20;;;;;;;19.52;11.85;;;;;;;16.53;73.59;100037.25;5191633;28;20155;-71
2022/10/19 02:14:13;;;;;;;18.00;10.90;;;;;;;16.66;73.23;100031.50;5205729;28;20638;-71
2022/10/19 02:17:20;;;;;;;21.70;10.88;;;;;;;16.57;72.81;100017.22;5203916;28;20427;-73
2022/10/19 02:20:11;;;;;;;22.67;11.85;;;;;;;16.66;73.10;100042.22;5190871;28;20131;-74
2022/10/19 02:23:05;;;;;;;18.63;11.30;;;;;;;16.55;73.15;100021.03;5204346;28;20056;-72
2022/10/19 02:25:56;;;;;;;22.15;11.02;;;;;;;16.63;72.57;100026.44;5186328;28;20110;-72
2022/10/19 02:28:49;;;;;;;18.83;11.60;;;;;;;16.61;72.75;100033.78;5207056;28;20583;-72
2022/10/19 02:31:39;;;;;;;20.40;11.18;;;;;;;16.57;73.22;100024.41;5193126;28;20100;-73
2022/10/19 02:34:29;;;;;;;20.75;12.02;;;;;;;16.48;72.98;100007.44;5205612;28;20056;-72
2022/10/19 02:37:19;;;;;;;19.27;11.32;;;;;;;16.48;72.34;100011.94;5214361;28;20045;-72
2022/10/19 02:40:15;;;;;;;20.33;11.88;;;;;;;16.35;72.67;99999.81;5203088;28;20044;-73
2022/10/19 02:43:10;;;;;;;20.80;11.90;;;;;;;16.44;72.62;100012.25;5203725;28;20623;-73
2022/10/19 02:46:10;;;;;;;18.92;11.95;;;;;;;16.36;72.14;100003.34;5206279;28;20110;-72
2022/10/19 02:49:02;;;;;;;17.10;11.50;;;;;;;16.29;72.05;100008.50;5200532;28;20567;-72
2022/10/19 02:51:57;;;;;;;18.50;12.15;;;;;;;16.17;72.21;100005.22;5201194;28;20512;-73
2022/10/19 02:54:47;;;;;;;20.20;11.77;;;;;;;16.01;71.83;99988.19;5205880;28;20413;-73
2022/10/19 02:57:37;;;;;;;18.30;12.07;;;;;;;15.95;71.65;99993.13;5202933;28;20435;-72
2022/10/19 03:00:27;;;;;;;16.55;10.98;;;;;;;15.92;71.23;100004.16;5204751;28;20051;-73
2022/10/19 03:03:18;;;;;;;16.77;10.73;;;;;;;15.94;71.72;100004.84;5193679;28;20056;-73
2022/10/19 03:06:08;;;;;;;21.17;11.50;;;;;;;16.00;72.09;100010.59;5208123;28;20111;-72
2022/10/19 03:08:58;;;;;;;18.67;11.07;;;;;;;15.82;71.72;100007.91;5205116;28;20186;-72
2022/10/19 03:11:48;;;;;;;19.00;10.50;;;;;;;15.66;71.79;99998.75;5205041;28;20053;-71
2022/10/19 03:14:38;;;;;;;18.75;11.10;;;;;;;15.57;71.57;99998.78;5202342;28;20060;-72
2022/10/19 03:17:28;;;;;;;16.00;10.23;;;;;;;15.60;71.54;100001.16;5203242;28;20108;-72
2022/10/19 03:20:19;;;;;;;17.02;9.45;;;;;;;15.41;71.68;99988.75;5202969;28;20509;-71
2022/10/19 03:23:09;;;;;;;15.82;9.82;;;;;;;15.35;71.03;99998.19;5203589;28;20139;-71
2022/10/19 03:25:59;;;;;;;15.65;8.90;;;;;;;15.20;71.15;99997.88;5199517;28;20128;-71
2022/10/19 03:28:49;;;;;;;15.15;9.68;;;;;;;15.17;71.15;99995.50;5205475;28;20056;-70
2022/10/19 03:31:40;;;;;;;16.05;9.80;;;;;;;15.02;70.96;99989.78;5204357;28;20057;-71
2022/10/19 03:34:30;;;;;;;15.10;9.43;;;;;;;14.86;71.27;99972.72;5205083;28;20665;-71
2022/10/19 03:37:20;;;;;;;15.25;9.52;;;;;;;14.87;70.93;99991.28;5190999;28;20515;-71
2022/10/19 03:40:10;;;;;;;17.27;9.88;;;;;;;14.76;72.10;99981.63;5202941;28;20049;-71
2022/10/19 03:43:00;;;;;;;14.48;9.52;;;;;;;14.72;71.57;99982.91;5206338;28;20100;-71
2022/10/19 03:45:50;;;;;;;19.27;10.40;;;;;;;14.79;72.60;99977.81;5202691;28;20056;-70
2022/10/19 03:48:41;;;;;;;27.65;12.43;;;;;;;14.96;74.34;99986.88;5202888;28;20131;-73
2022/10/19 03:51:32;;;;;;;25.65;12.82;;;;;;;15.01;75.25;99980.13;5208261;28;20056;-72
2022/10/19 03:54:22;;;;;;;30.40;13.73;;;;;;;15.09;75.48;99989.22;5212752;28;20055;-73
2022/10/19 03:57:16;;;;;;;31.25;14.73;;;;;;;15.27;75.72;99984.75;5201966;28;20119;-73
2022/10/19 04:00:08;;;;;;;21.83;12.18;;;;;;;15.33;74.65;99991.31;5204463;28;20052;-73
2022/10/19 04:03:01;;;;;;;29.00;13.32;;;;;;;15.30;74.90;99997.81;5207408;28;20060;-70
2022/10/19 04:05:51;;;;;;;36.08;14.55;;;;;;;15.37;74.91;99990.06;5204341;28;20056;-71
2022/10/19 04:08:41;;;;;;;29.23;14.05;;;;;;;15.39;75.13;99994.22;5192025;28;20855;-74
2022/10/19 04:11:32;;;;;;;32.92;13.13;;;;;;;15.13;75.00;99970.09;5200784;28;20053;-73
2022/10/19 04:14:24;;;;;;;33.30;14.05;;;;;;;15.25;75.78;99997.41;5209159;28;20052;-73
2022/10/19 04:17:28;;;;;;;27.00;13.82;;;;;;;15.27;74.46;99980.25;5201849;28;20049;-73
2022/10/19 04:20:18;;;;;;;24.10;13.23;;;;;;;15.34;74.32;99991.19;5185062;28;20050;-73
2022/10/19 04:23:07;;;;;;;59.47;13.90;;;;;;;15.20;75.93;99987.19;5199965;28;20060;-72
2022/10/19 04:26:03;;;;;;;34.03;13.07;;;;;;;15.27;75.54;99985.59;5205813;28;20550;-72
2022/10/19 04:28:56;;;;;;;35.60;13.32;;;;;;;15.38;75.41;99995.22;5205253;28;20140;-74
2022/10/19 04:31:50;;;;;;;38.25;13.13;;;;;;;15.32;75.16;100000.34;5202766;28;20045;-73
2022/10/19 04:34:40;;;;;;;24.75;11.70;;;;;;;15.25;75.48;99992.91;5201583;28;20056;-73
2022/10/19 04:37:31;;;;;;;31.08;12.23;;;;;;;15.24;75.20;99991.25;5209703;28;20056;-73
2022/10/19 04:40:21;;;;;;;42.83;12.55;;;;;;;15.25;75.22;99992.91;5205523;28;20127;-72
2022/10/19 04:43:11;;;;;;;43.58;12.95;;;;;;;15.17;75.90;99994.66;5203969;28;20057;-73
2022/10/19 04:46:11;;;;;;;28.05;12.70;;;;;;;15.09;75.71;99999.91;5201468;28;20124;-73
2022/10/19 04:49:03;;;;;;;29.88;12.80;;;;;;;15.21;75.17;99999.56;5197958;28;20193;-73
2022/10/19 04:51:53;;;;;;;39.97;12.30;;;;;;;15.16;75.06;99992.97;5203595;28;20061;-73
2022/10/19 04:54:43;;;;;;;26.85;12.00;;;;;;;15.10;75.26;99988.22;5194613;28;20091;-73
2022/10/19 04:57:33;;;;;;;26.10;11.68;;;;;;;15.00;75.86;99990.97;5202478;28;20072;-72
2022/10/19 05:00:23;;;;;;;23.77;10.45;;;;;;;15.04;75.06;100006.53;5199341;28;20695;-72
2022/10/19 05:03:14;;;;;;;26.23;10.30;;;;;;;15.03;74.92;99999.50;5208550;28;20135;-73
2022/10/19 05:06:05;;;;;;;15.90;9.85;;;;;;;14.86;74.71;99992.25;5202586;28;20064;-73
2022/10/19 05:08:55;;;;;;;24.27;10.70;;;;;;;14.92;74.58;99996.19;5201532;28;20180;-72
2022/10/19 05:11:49;;;;;;;19.27;9.57;;;;;;;14.60;76.62;99980.56;5192697;28;20120;-73
2022/10/19 05:14:39;;;;;;;22.58;9.77;;;;;;;14.86;76.02;100000.28;5206184;28;20197;-73
2022/10/19 05:17:32;;;;;;;14.25;9.05;;;;;;;14.80;75.56;100004.38;5192874;28;20072;-73
2022/10/19 05:20:23;;;;;;;42.92;8.73;;;;;;;14.56;76.43;99988.84;5186378;28;20103;-73
2022/10/19 05:23:13;;;;;;;29.88;8.45;;;;;;;14.74;75.18;100001.47;5206519;28;20156;-73
2022/10/19 05:26:11;;;;;;;31.02;10.02;;;;;;;14.71;75.77;99999.09;5204478;28;20423;-73
2022/10/19 05:29:03;;;;;;;25.70;10.10;;;;;;;14.76;75.74;99997.63;5204681;28;20053;-72
2022/10/19 05:31:53;;;;;;;36.75;10.68;;;;;;;14.79;74.77;100001.84;5192101;28;20137;-73
2022/10/19 05:34:43;;;;;;;40.55;10.48;;;;;;;14.78;75.09;99997.50;5198549;28;20131;-72
2022/10/19 05:37:33;;;;;;;35.85;10.25;;;;;;;14.78;75.11;99989.50;5233904;22;20500;-72
2022/10/19 05:40:23;;;;;;;20.35;9.93;;;;;;;14.75;75.01;99979.09;5182798;28;20044;-71
2022/10/19 05:43:13;;;;;;;32.50;10.55;;;;;;;14.81;75.06;99991.88;5201351;28;20139;-71
2022/10/19 05:46:10;;;;;;;50.47;11.20;;;;;;;14.81;74.70;99994.53;5191822;28;20617;-76
2022/10/19 05:49:00;;;;;;;57.63;10.50;;;;;;;14.84;75.18;99994.25;5204616;28;20064;-74
2022/10/19 05:51:50;;;;;;;45.88;10.27;;;;;;;14.86;74.55;99991.41;5215511;28;20498;-75
2022/10/19 05:54:40;;;;;;;55.17;10.93;;;;;;;14.85;74.95;99993.25;5214080;28;20056;-71
2022/10/19 05:57:31;;;;;;;36.42;10.88;;;;;;;14.82;75.08;99990.03;5215196;28;20048;-74
2022/10/19 06:00:22;;;;;;;39.78;10.65;;;;;;;14.71;75.62;99983.06;5214037;28;20045;-77
2022/10/19 06:03:12;;;;;;;63.88;10.10;;;;;;;14.92;74.57;99997.00;5201510;28;20049;-74
2022/10/19 06:06:04;;;;;;;19.17;9.63;;;;;;;14.78;74.65;100002.84;5215336;28;20202;-76
2022/10/19 06:08:55;;;;;;;42.28;10.63;;;;;;;14.72;75.50;99990.06;5216839;28;20547;-74
2022/10/19 06:11:46;;;;;;;58.85;11.18;;;;;;;14.74;76.01;99994.28;5212453;28;20049;-73
2022/10/19 06:14:37;;;;;;;45.38;11.52;;;;;;;14.75;75.63;99997.78;5217564;28;20723;-76
2022/10/19 06:17:28;;;;;;;26.45;10.63;;;;;;;14.83;75.68;100005.91;5210616;28;20061;-74
2022/10/19 06:20:18;;;;;;;50.33;11.32;;;;;;;14.83;75.74;99986.38;5201979;28;20111;-74
2022/10/19 06:23:08;;;;;;;58.13;11.82;;;;;;;14.96;75.51;100008.25;5205622;28;20179;-73
2022/10/19 06:26:01;;;;;;;91.07;10.82;;;;;;;14.95;75.12;100007.41;5199505;28;20589;-74
2022/10/19 06:28:54;;;;;;;49.38;11.15;;;;;;;14.89;75.68;100002.66;5185523;28;20280;-72
2022/10/19 06:31:45;;;;;;;57.17;10.23;;;;;;;14.86;75.39;99992.25;5203716;28;20127;-72
2022/10/19 06:34:35;;;;;;;52.58;10.00;;;;;;;14.90;75.74;100001.69;5201415;28;20064;-72
2022/10/19 06:37:25;;;;;;;74.78;8.60;;;;;;;14.88;76.12;100005.47;5201865;28;20118;-72
2022/10/19 06:40:15;;;;;;;36.10;9.60;;;;;;;14.88;75.99;100006.31;5204138;28;20115;-72
2022/10/19 06:43:05;;;;;;;20.13;8.10;;;;;;;14.96;74.96;100001.06;5208343;28;20056;-72
2022/10/19 06:45:55;;;;;;;22.80;8.50;;;;;;;14.93;75.19;100009.41;5206380;28;20065;-73
2022/10/19 06:49:00;;;;;;;15.80;8.45;;;;;;;14.91;75.17;100005.19;5211472;28;20146;-72
2022/10/19 06:51:50;;;;;;;;;;;;;;;15.00;74.63;100010.50;5209316;28;20077;-72
2022/10/19 06:54:40;;;;;;;17.75;8.88;;;;;;;14.94;74.80;99988.88;5213392;28;19959;-71
2022/10/19 06:57:30;;;;;;;16.10;8.70;;;;;;;15.19;74.18;100014.88;5208248;28;20712;-71
2022/10/19 07:00:20;;;;;;;15.65;9.52;;;;;;;15.26;73.89;100017.78;5201736;28;20048;-72
2022/10/19 07:03:10;;;;;;;14.20;9.70;;;;;;;15.28;74.15;100022.00;5211463;28;20060;-72
2022/10/19 07:06:03;;;;;;;16.08;9.95;;;;;;;15.39;73.77;100025.47;5213676;28;20533;-72
2022/10/19 07:08:53;;;;;;;23.02;9.77;;;;;;;15.32;74.29;100019.88;5205281;28;20061;-71
2022/10/19 07:11:43;;;;;;;16.38;9.93;;;;;;;15.28;73.67;100019.34;5197559;28;20176;-70
2022/10/19 07:14:38;;;;;;;17.77;11.02;;;;;;;15.23;74.98;100018.09;5199506;28;20641;-72
2022/10/19 07:17:28;;;;;;;21.92;11.23;;;;;;;15.34;75.08;100017.91;5204650;28;20156;-72
2022/10/19 07:20:18;;;;;;;25.55;11.88;;;;;;;15.57;73.38;100017.50;5206110;28;20052;-74
2022/10/19 07:23:08;;;;;;;19.40;11.55;;;;;;;15.61;73.67;100021.53;5209155;28;20060;-72
2022/10/19 07:26:06;;;;;;;34.20;12.63;;;;;;;15.55;73.32;100024.81;5205011;28;20052;-72
2022/10/19 07:28:56;;;;;;;26.90;13.25;;;;;;;15.60;73.55;100033.22;5205010;28;20123;-72
2022/10/19 07:31:46;;;;;;;24.83;13.38;;;;;;;15.65;73.73;100022.91;5208375;28;20540;-72
2022/10/19 07:34:36;;;;;;;21.38;12.70;;;;;;;15.72;73.32;100014.16;5207778;28;20061;-72
2022/10/19 07:37:27;;;;;;;25.10;12.02;;;;;;;15.99;72.81;100028.44;5213519;28;20049;-72
2022/10/19 07:40:17;;;;;;;19.08;11.75;;;;;;;16.02;72.28;100029.97;5206483;28;20155;-72
2022/10/19 07:43:07;;;;;;;20.85;11.93;;;;;;;15.93;72.38;100029.91;5206248;28;20539;-72
2022/10/19 07:45:58;;;;;;;24.08;12.75;;;;;;;16.12;72.01;100033.41;5213037;28;20059;-72
2022/10/19 07:48:48;;;;;;;22.67;12.98;;;;;;;16.11;71.72;100034.41;5201916;28;20418;-72
2022/10/19 07:51:39;;;;;;;18.80;11.38;;;;;;;16.32;71.13;100031.41;5206970;28;20118;-72
2022/10/19 07:54:29;;;;;;;20.85;12.13;;;;;;;16.36;71.22;100036.31;5213449;28;20075;-72
2022/10/19 07:57:21;;;;;;;26.40;12.32;;;;;;;16.26;71.52;100030.22;5213688;28;20115;-72
2022/10/19 08:00:11;;;;;;;28.45;13.07;;;;;;;15.95;72.43;100037.78;5191671;28;20065;-72
2022/10/19 08:03:01;;;;;;;22.00;12.75;;;;;;;16.17;71.99;100017.75;5196040;28;20052;-72
2022/10/19 08:06:15;;;;;;;27.40;12.82;;;;;;;16.56;70.21;100038.78;5209192;28;20075;-72
2022/10/19 08:09:06;;;;;;;21.25;12.48;;;;;;;16.40;71.15;100016.25;5207598;28;20068;-72
2022/10/19 08:11:56;;;;;;;22.20;11.88;;;;;;;16.50;71.60;100036.75;5210312;28;20057;-72
2022/10/19 08:14:46;;;;;;;21.02;11.55;;;;;;;16.54;71.16;100025.53;5210032;28;20059;-72
2022/10/19 08:17:38;;;;;;;21.05;11.68;;;;;;;16.91;70.43;100021.78;5216220;28;20110;-72
2022/10/19 08:20:28;;;;;;;24.92;11.90;;;;;;;16.75;70.57;100029.72;5216127;28;20588;-72
2022/10/19 08:23:18;;;;;;;23.85;12.55;;;;;;;17.03;71.45;100035.75;5208723;28;20095;-72
2022/10/19 08:26:08;;;;;;;20.98;11.85;;;;;;;17.09;70.71;100030.59;5211747;28;20061;-72
2022/10/19 08:28:59;;;;;;;22.90;11.95;;;;;;;16.95;70.59;100023.13;5203364;28;20053;-72
2022/10/19 08:31:49;;;;;;;22.88;11.40;;;;;;;17.07;70.13;100024.53;5196962;28;20049;-72
2022/10/19 08:34:40;;;;;;;23.25;12.02;;;;;;;17.00;70.38;100023.50;5213059;28;20162;-72
2022/10/19 08:37:30;;;;;;;31.38;12.77;;;;;;;17.20;68.81;100024.09;5215711;28;20155;-72
2022/10/19 08:40:35;;;;;;;20.15;11.02;;;;;;;17.02;69.79;100020.66;5214641;28;21022;-72
2022/10/19 08:43:35;;;;;;;19.25;11.02;;;;;;;17.14;70.87;100022.06;5202941;28;20060;-72
2022/10/19 08:46:42;;;;;;;18.52;11.05;;;;;;;17.14;70.35;100025.56;5204679;28;20127;-72
2022/10/19 08:49:32;;;;;;;20.20;11.13;;;;;;;17.17;70.09;100019.06;5203546;28;20056;-72
2022/10/19 08:52:28;;;;;;;16.73;11.20;;;;;;;17.29;70.16;100017.78;5191566;28;20052;-72
2022/10/19 08:55:39;;;;;;;26.73;11.13;;;;;;;17.36;69.71;100018.78;5213111;28;20057;-72
2022/10/19 08:58:42;;;;;;;20.67;10.30;;;;;;;17.54;70.09;100017.84;5211295;28;20080;-72
2022/10/19 09:01:45;;;;;;;17.93;10.57;;;;;;;17.78;68.97;100015.25;5188602;28;20507;-72
2022/10/19 09:04:39;;;;;;;16.35;11.00;;;;;;;17.88;70.33;100003.50;5210305;28;20538;-72
2022/10/19 09:07:36;;;;;;;22.27;11.40;;;;;;;17.94;69.05;100014.41;5198458;28;20111;-72
2022/10/19 09:10:31;;;;;;;10.68;7.57;;;;;;;18.18;66.55;100010.06;5205744;28;20049;-72
2022/10/19 09:13:23;;;;;;;13.23;7.25;;;;;;;17.97;67.77;100016.75;5210461;28;20056;-72
2022/10/19 09:16:26;;;;;;;11.60;7.03;;;;;;;18.01;67.24;100015.44;5192482;28;20057;-72
2022/10/19 09:19:28;;;;;;;9.93;6.57;;;;;;;18.14;67.38;99989.94;5214767;28;20667;-72
2022/10/19 09:22:40;;;;;;;9.65;6.10;;;;;;;17.95;66.63;99989.28;5214579;28;20577;-72
2022/10/19 09:25:33;;;;;;;10.88;5.47;;;;;;;18.36;66.78;99991.09;5218739;28;20057;-72
2022/10/19 09:28:33;;;;;;;9.40;5.80;;;;;;;18.50;66.24;99995.78;5211756;28;20052;-72
2022/10/19 09:31:42;;;;;;;9.00;5.53;;;;;;;18.53;64.71;99990.06;5208548;28;20081;-72
2022/10/19 09:34:36;;;;;;;9.15;5.13;;;;;;;18.65;65.26;99983.31;5207325;28;20053;-72
2022/10/19 09:37:28;;;;;;;8.20;4.50;;;;;;;18.80;64.60;99993.38;5212433;28;20099;-71
2022/10/19 09:40:29;;;;;;;7.53;4.63;;;;;;;19.02;64.66;99995.34;5208415;28;20518;-71
2022/10/19 09:43:20;;;;;;;10.05;5.90;;;;;;;18.64;64.48;99970.06;5214489;28;20083;-70
2022/10/19 09:46:23;;;;;;;10.23;5.35;;;;;;;19.06;64.18;99993.97;5207872;28;20092;-72
2022/10/19 09:49:13;;;;;;;10.10;5.30;;;;;;;19.32;62.46;99979.41;5213303;28;20525;-72
2022/10/19 09:52:03;;;;;;;6.25;4.40;;;;;;;19.17;63.46;99990.91;5211964;28;20140;-70
2022/10/19 09:55:17;;;;;;;8.40;5.32;;;;;;;18.76;63.96;99974.91;5197750;28;20049;-69
2022/10/19 09:58:13;;;;;;;7.57;5.30;;;;;;;19.47;62.72;99983.84;5209604;28;20060;-72
2022/10/19 10:01:02;;;;;;;8.32;5.28;;;;;;;19.31;61.55;99988.50;5206384;28;20060;-72
2022/10/19 10:04:04;;;;;;;7.63;4.85;;;;;;;19.28;61.63;99983.47;5213038;28;20137;-72
2022/10/19 10:06:55;;;;;;;5.32;3.85;;;;;;;19.28;62.87;99978.91;5199578;28;20143;-71
2022/10/19 10:09:46;;;;;;;7.85;4.20;;;;;;;19.06;62.63;99983.22;5215273;28;20056;-71
2022/10/19 10:12:38;;;;;;;6.60;4.07;;;;;;;18.57;63.85;99987.88;5213820;28;20041;-72
2022/10/19 10:15:43;;;;;;;9.63;4.03;;;;;;;18.91;63.48;99984.97;5216401;28;20049;-72
2022/10/19 10:18:38;;;;;;;7.80;4.25;;;;;;;19.22;62.61;99980.44;5199303;28;20053;-71
2022/10/19 10:21:33;;;;;;;547.67;53.10;;;;;;;19.49;62.63;99980.97;5204154;28;20045;-71
2022/10/19 10:24:29;;;;;;;4.68;3.42;;;;;;;19.36;63.04;99962.72;5209381;28;20518;-71
2022/10/19 10:27:37;;;;;;;5.03;3.67;;;;;;;19.35;62.49;99973.69;5210782;28;20049;-70
2022/10/19 10:30:36;;;;;;;5.85;4.18;;;;;;;19.59;61.30;99972.69;5208360;28;20052;-70
2022/10/19 10:33:28;;;;;;;5.00;3.13;;;;;;;19.32;62.28;99963.28;5197441;28;20425;-70
2022/10/19 10:36:34;;;;;;;5.97;3.38;;;;;;;19.43;61.76;99974.44;5211614;28;20052;-71
2022/10/19 10:39:27;;;;;;;10.43;2.78;;;;;;;19.38;62.06;99966.09;5198971;28;20046;-71
2022/10/19 10:42:21;;;;;;;4.40;2.70;;;;;;;19.46;60.87;99959.81;5197036;28;20049;-69
2022/10/19 10:45:18;;;;;;;3.72;2.42;;;;;;;19.35;61.74;99960.22;5209959;28;20066;-70
2022/10/19 10:48:27;;;;;;;6.40;2.80;;;;;;;19.08;61.95;99954.31;5203171;28;20084;-69
2022/10/19 10:51:37;;;;;;;4.35;2.47;;;;;;;19.24;62.14;99950.72;5201419;28;20586;-68
2022/10/19 10:54:32;;;;;;;3.85;2.63;;;;;;;19.20;62.17;99944.84;5212511;28;20429;-71
2022/10/19 10:57:27;;;;;;;6.15;2.53;;;;;;;19.53;61.02;99939.25;5214624;28;20514;-70
2022/10/19 11:00:22;;;;;;;6.97;3.05;;;;;;;19.33;61.92;99941.56;5201823;28;20057;-71
2022/10/19 11:03:22;;;;;;;3.88;2.55;;;;;;;19.59;61.38;99941.22;5214766;28;20052;-71
2022/10/19 11:06:15;;;;;;;6.32;2.35;;;;;;;19.68;62.03;99934.81;5206307;28;20051;-71
2022/10/19 11:09:48;;;;;;;4.40;2.70;;;;;;;19.99;60.14;99925.81;5210036;28;20065;-69
2022/10/19 11:12:45;;;;;;;3.38;2.70;;;;;;;19.31;60.62;99929.34;5213649;28;20056;-70
2022/10/19 11:16:13;;;;;;;5.50;2.88;;;;;;;19.74;60.75;99924.38;5204055;28;20053;-71
2022/10/19 11:19:15;;;;;;;4.57;2.65;;;;;;;20.08;58.92;99922.03;5200056;28;20057;-69
2022/10/19 11:22:27;;;;;;;3.60;2.40;;;;;;;19.97;60.35;99916.22;5203489;28;20518;-71
2022/10/19 11:25:25;;;;;;;3.88;2.88;;;;;;;19.84;61.00;99892.66;5200244;28;20080;-68
2022/10/19 11:28:47;;;;;;;2.00;1.75;;;;;;;20.51;58.97;99905.28;5201789;28;20086;-71
2022/10/19 11:31:49;;;;;;;4.35;1.80;;;;;;;20.63;58.84;99893.88;5208257;28;20067;-72
2022/10/19 11:34:56;;;;;;;5.85;1.80;;;;;;;20.86;57.38;99891.06;5208062;28;20202;-70
2022/10/19 11:37:58;;;;;;;2.05;1.85;;;;;;;20.87;59.10;99881.09;5202416;28;20041;-68
2022/10/19 11:41:42;;;;;;;16.17;2.25;;;;;;;20.96;56.09;99881.81;5201994;28;20132;-69
2022/10/19 11:44:50;;;;;;;4.22;2.22;;;;;;;20.96;58.00;99877.28;5187465;28;20050;-70
2022/10/19 11:48:18;;;;;;;3.15;2.00;;;;;;;20.49;57.92;99862.34;5184697;28;20044;-67
2022/10/19 11:51:19;;;;;;;4.03;2.05;;;;;;;20.90;56.49;99861.84;5204113;28;20057;-72
2022/10/19 11:54:28;;;;;;;4.93;2.05;;;;;;;21.07;57.25;99860.59;5227002;23;20057;-90
2022/10/19 11:57:24;;;;;;;4.88;2.15;;;;;;;21.47;56.24;99842.16;5225214;28;20048;-89
2022/10/19 12:00:20;;;;;;;2.40;2.00;;;;;;;21.52;54.69;99839.72;5228774;28;20060;-94
2022/10/19 12:03:41;;;;;;;3.95;2.28;;;;;;;21.59;54.76;99834.38;5216302;28;20166;-88
2022/10/19 12:06:56;;;;;;;3.00;2.00;;;;;;;20.83;56.36;99828.59;5229937;28;20096;-88
2022/10/19 12:10:18;;;;;;;2.40;1.92;;;;;;;21.47;56.02;99825.13;5218423;22;20090;-72
2022/10/19 12:13:12;;;;;;;2.40;2.15;;;;;;;21.52;55.17;99823.53;5202104;28;20049;-73
2022/10/19 12:16:04;;;;;;;2.75;2.40;;;;;;;21.53;56.46;99809.00;5183490;28;20428;-72
2022/10/19 12:18:59;;;;;;;9.13;2.55;;;;;;;21.88;54.71;99810.91;5168180;28;20057;-72
2022/10/19 12:21:53;;;;;;;4.82;1.95;;;;;;;22.02;53.26;99810.81;5171287;28;20546;-71
2022/10/19 12:24:44;;;;;;;3.13;2.40;;;;;;;21.97;55.38;99815.94;5192804;28;20088;-72
2022/10/19 12:27:37;;;;;;;4.28;2.33;;;;;;;22.05;53.32;99813.13;5187093;28;20049;-72
2022/10/19 12:30:28;;;;;;;4.20;2.00;;;;;;;21.88;54.59;99811.72;5183671;28;20050;-72
2022/10/19 12:33:23;;;;;;;2.53;1.92;;;;;;;21.70;55.67;99806.84;5192423;28;20519;-72
2022/10/19 12:36:48;;;;;;;5.68;2.70;;;;;;;21.52;53.94;99803.78;5194066;28;20509;-73
2022/10/19 12:39:48;;;;;;;4.73;2.70;;;;;;;21.24;55.72;99795.63;5187089;28;20052;-71
2022/10/19 12:42:56;;;;;;;4.00;2.20;;;;;;;21.05;54.75;99778.22;5186075;28;20669;-72
2022/10/19 12:46:31;;;;;;;2.65;2.20;;;;;;;20.66;56.40;99790.25;5183824;28;20060;-71
2022/10/19 12:49:27;;;;;;;1.77;1.67;;;;;;;21.15;56.56;99786.00;5170317;28;20057;-72
2022/10/19 12:52:38;;;;;;;7.03;2.10;;;;;;;21.55;53.69;99785.31;5183305;28;20045;-71
2022/10/19 12:55:33;;;;;;;2.30;2.10;;;;;;;21.18;54.95;99775.66;5184979;28;20054;-72
2022/10/19 12:58:24;;;;;;;2.92;1.80;;;;;;;21.11;55.74;99772.06;5187389;28;20560;-71
2022/10/19 13:01:27;;;;;;;5.28;2.10;;;;;;;21.05;55.57;99762.03;5185624;28;20570;-71
2022/10/19 13:04:27;;;;;;;3.95;2.25;;;;;;;20.87;56.04;99749.84;5172315;28;20434;-71
2022/10/19 13:07:18;;;;;;;5.78;2.83;;;;;;;20.85;56.67;99751.91;5189428;28;20195;-72
2022/10/19 13:10:19;;;;;;;2.03;1.80;;;;;;;21.11;55.37;99758.56;5165636;28;20535;-71
2022/10/19 13:13:49;;;;;;;3.13;2.50;;;;;;;21.43;55.32;99751.84;5185119;28;20131;-71
2022/10/19 13:16:55;;;;;;;3.40;2.25;;;;;;;21.27;55.81;99752.91;5175953;28;20531;-71
2022/10/19 13:19:46;;;;;;;5.75;2.15;;;;;;;21.52;55.50;99758.75;5182139;28;20060;-72
2022/10/19 13:22:36;;;;;;;4.00;2.28;;;;;;;21.39;55.72;99747.00;5167023;28;20073;-72
2022/10/19 13:25:31;;;;;;;3.13;2.35;;;;;;;20.94;55.44;99728.34;5176139;28;20050;-72
2022/10/19 13:28:28;;;;;;;4.15;2.42;;;;;;;20.95;56.65;99735.41;5180356;28;20424;-72
2022/10/19 13:31:27;;;;;;;5.75;2.55;;;;;;;20.78;57.00;99736.69;5183583;28;20057;-71